Terminal Aerodrome Forecast
Issued by NWS

Home | Current Version | Previous Version | Text Only | Print | Product List | Glossary On
Versions: 1 2 3 4 5 6 7 8 9 10 11 12 13 14 15 16 17 18
000
FTUS45 KFGZ 300700 AAA
TAFGCN
TAF AMD
KGCN 300738Z 3008/3106 07009KT 6SM -RA BR BKN025 OVC050
     FM300900 07008KT 3SM -RA BR OVC010
     FM301200 08008KT 1SM -RA BR BKN005 OVC010=

USA.gov is the U.S. government's official web portal to all federal, state and local government web resources and services.